METAR EFET 261720Z AUTO 10008KT 060V130 CAVOK 21/11 Q1020=
METAR EFHA 261720Z AUTO 23005KT 210V270 CAVOK 28/11 Q1019=
METAR EFHK 261720Z 19007KT CAVOK 27/15 Q1020 NOSIG=
METAR EFIV 261720Z AUTO 03008KT 350V050 CAVOK 17/04 Q1022=
METAR EFJO 261720Z AUTO 31007KT CAVOK 27/12 Q1018=
METAR EFJY 261720Z AUTO 26005KT 210V290 CAVOK 28/12 Q1019=
METAR EFKE 261720Z AUTO 18005KT CAVOK 18/15 Q1018=
METAR EFKI 261720Z AUTO 30004KT CAVOK 26/17 Q1018=
METAR EFKK 261720Z AUTO 25008KT CAVOK 25/11 Q1019=
METAR EFKS 261720Z 33008KT 280V020 9999 SCT057CB 26/13 Q1018=
METAR EFKT 261720Z AUTO 07010KT CAVOK 23/10 Q1019=
METAR EFKU 261720Z AUTO 27004KT 240V300 CAVOK 28/12 Q1018=
METAR EFLA 261720Z AUTO 28003KT 240V310 CAVOK 28/13 Q1020=
METAR EFLP 261720Z AUTO 28005KT CAVOK 28/12 Q1019=
METAR EFMA 261720Z AUTO 15008KT CAVOK 23/17 Q1019=
METAR EFMI 261720Z AUTO 26004KT 240V300 CAVOK 27/15 Q1019=
METAR EFOU 261720Z AUTO 26004KT 220V320 CAVOK 23/13 Q1018=
METAR EFPO 261720Z AUTO 25004KT 170V300 CAVOK 27/16 Q1019=
METAR EFRO 261720Z AUTO 09007KT CAVOK 26/13 Q1018=
METAR EFSA 261720Z 30006KT CAVOK 27/14 Q1019=
METAR EFSI 261720Z AUTO 27003KT 220V310 CAVOK 27/12 Q1019=
METAR EFTP 261720Z AUTO 20003KT 170V230 CAVOK 28/14 Q1020=
METAR EFTU 261720Z AUTO 23007KT 200V270 CAVOK 28/15 Q1020=
METAR EFUT 261720Z AUTO 31004KT 280V340 CAVOK 29/13 Q1020=
METAR EFVA 261720Z AUTO 23006KT CAVOK 25/13 Q1019=
ILHF 261740Z AUTO 18005KT CAVOK 25/16 Q1020=
ILIK 261740Z AUTO 23004KT 190V270 CAVOK 28/14 Q1020=
ILKA 261740Z AUTO 26005KT CAVOK 25/12 Q1019=
ILKM 261740Z AUTO VRB03KT CAVOK 24/11 Q1019=
ILPR 261740Z AUTO 19005KT 160V220 CAVOK 25/16 Q1020=
ILPU 261740Z AUTO 22005KT 180V270 CAVOK 25/15 Q1018=
ILQA 261740Z AUTO 04009KT 360V090 CAVOK 22/10 Q1019=
ILQB 261740Z AUTO 05008KT 020V080 CAVOK 15/05 Q1022=
ILQC 261740Z AUTO 08007KT 010V130 CAVOK 23/11 Q1019=
ILQD 261740Z AUTO /////KT CAVOK 15/07 Q////=
ILQE 261740Z AUTO 09004KT 010V140 CAVOK 28/13 Q1017=
ILQF 261740Z AUTO 20006KT CAVOK 24/18 Q1018=
ILQH 261740Z AUTO 20009KT CAVOK 16/13 Q1018=
ILQI 261740Z AUTO 08007KT 030V120 //// // NSC 21/10 Q1020=
ILQJ 261740Z AUTO 14007KT CAVOK 16/14 Q1018=
ILQK 261740Z AUTO 08015KT 9999 ////// 20/10 Q1020=
ILQL 261740Z AUTO 29011KT 9999 ////// 19/15 Q1018=
ILQM 261740Z AUTO 06011KT CAVOK 19/05 Q////=
ILQN 261740Z AUTO 31006KT CAVOK 22/10 Q1020=
ILQO 261740Z AUTO 04006KT 350V090 CAVOK 22/10 Q1020=
ILQP 261740Z AUTO 20014KT 9999 VCSH //////CB 20/13 Q1018=
ILQQ 261740Z AUTO VRB02KT CAVOK 18/15 Q1018=
ILQR 261740Z AUTO 06006KT 340V110 CAVOK 27/14 Q1017=
ILQS 261740Z AUTO 30004KT 250V350 CAVOK 25/15 Q1018=
ILQT 261740Z AUTO 09007KT CAVOK 19/10 Q1021=
ILQU 261740Z AUTO 09007KT 020V180 CAVOK 15/06 Q1023=
ILQV 261740Z AUTO 02005KT 310V100 CAVOK 20/03 Q1021=
ILQX 261740Z AUTO 28004KT 210V310 CAVOK 22/14 Q1018=
ILQY 261740Z AUTO 29006KT 260V320 CAVOK 24/13 Q1019=
ILRU 261740Z AUTO 17003KT 130V230 CAVOK 25/16 Q1018=
ILWA 261740Z AUTO 22006KT CAVOK 22/19 Q1019=
ILWD 261740Z AUTO /////KT //// // NCD 25/15 Q////=
ILWE 261740Z AUTO 09004KT 050V120 CAVOK 17/04 Q1021=
ILWF 261740Z AUTO VRB02KT CAVOK 20/18 Q////=
ILWG 261740Z AUTO /////KT CAVOK 27/14 Q1020=
ILXA 261740Z AUTO /////KT CAVOK 28/10 Q1019=
ILXB 261740Z AUTO 24004KT 180V300 CAVOK 27/15 Q1019=
ILXC 261740Z AUTO 32003KT 250V010 CAVOK 27/12 Q1019=
ILXD 261740Z AUTO /////KT CAVOK 28/13 Q1018=
ILXE 261740Z AUTO VRB02KT CAVOK 26/14 Q1019=
ILXF 261740Z AUTO 20019KT CAVOK 22/18 Q1019=
ILXG 261740Z AUTO 17010KT CAVOK 21/15 Q1019=
ILXI 261740Z AUTO VRB03KT CAVOK 26/12 Q////=
ILXJ 261740Z AUTO VRB03KT CAVOK 27/16 Q1018=
ILXK 261740Z AUTO 33004KT 260V030 CAVOK 27/13 Q1017=
ILXL 261740Z AUTO /////KT 9999 VCSH //////CB 26/11 Q1019=
ILXM 261740Z AUTO /////KT CAVOK 27/14 Q////=
ILXN 261740Z AUTO 26005KT 170V310 CAVOK 28/15 Q1019=
ILXO 261740Z AUTO 24004KT 190V280 CAVOK 26/15 Q1019=
ILXP 261740Z AUTO 17008KT CAVOK 23/17 Q1019=
ILXQ 261740Z AUTO /////KT CAVOK 29/09 Q////=
ILXR 261740Z AUTO VRB02KT CAVOK 26/13 Q1019=
ILXS 261740Z AUTO 30005KT 250V350 CAVOK 26/15 Q1018=
ILXT 261740Z AUTO 23009KT CAVOK 21/14 Q1019=
ILXU 261740Z AUTO /////KT CAVOK 26/15 Q1019=
ILXV 261740Z AUTO VRB01KT CAVOK 27/13 Q1019=
ILXW 261740Z AUTO 33005KT 300V010 CAVOK 26/15 Q1019=
ILXX 261740Z AUTO 22005KT 140V300 CAVOK 25/13 Q1019=
ILXY 261740Z AUTO 30003KT 270V330 CAVOK 28/13 Q1018=
ILXZ 261740Z AUTO 32005KT 260V360 CAVOK 27/13 Q////=
ILYL 261740Z AUTO 31006KT 270V350 CAVOK 25/12 Q1020=
ILZA 261740Z AUTO 20010KT CAVOK 21/21 Q1020=
ILZB 261740Z AUTO 18006KT 130V240 CAVOK 23/17 Q1019=
ILZC 261740Z AUTO /////KT CAVOK 28/12 Q1019=
ILZD 261740Z AUTO 22009KT CAVOK 25/15 Q1020=
ILZE 261740Z AUTO 20006KT CAVOK 24/16 Q1020=
ILZF 261740Z AUTO 17004KT 110V230 CAVOK 26/15 Q1020=
ILZG 261740Z AUTO /////KT CAVOK 27/15 Q1020=
ILZH 261740Z AUTO /////KT CAVOK 28/14 Q1019=
ILZJ 261740Z AUTO 24006KT 200V280 CAVOK 27/15 Q1020=
ILZK 261740Z AUTO 16007KT 110V200 CAVOK 24/16 Q1019=
ILZL 261740Z AUTO 05003KT 020V100 CAVOK 28/13 Q1019=
ILZM 261740Z AUTO /////KT CAVOK 28/15 Q1020=
ILZO 261740Z AUTO 21008KT CAVOK 23/18 Q1020=
ILZP 261740Z AUTO 32005KT 280V350 CAVOK 28/15 Q1019=
ILZQ 261740Z AUTO VRB02KT CAVOK 26/17 Q1019=
ILZR 261740Z AUTO VRB05KT CAVOK 27/15 Q1019=
ILZS 261740Z AUTO 20006KT 9999 VCSH //////CB 23/18 Q1020=
ILZT 261740Z AUTO 22003KT 180V270 CAVOK 23/18 Q1020=
ILZU 261740Z AUTO 14007KT CAVOK 22/18 Q1019=
ILZV 261740Z AUTO 18006KT 150V210 CAVOK 25/17 Q1020=
ILZW 261740Z AUTO 21009KT CAVOK 22/20 Q1020=
ILZX 261740Z AUTO 19004KT 140V230 CAVOK 24/17 Q1020=
ILZY 261740Z AUTO 15016KT CAVOK 20/18 Q////=
ILZZ 261740Z AUTO /////KT CAVOK 28/13 Q1020=